sensor_id;sensor_type;location;lat;lon;timestamp;pressure;altitude;pressure_sealevel;temperature;humidity
49455;BME280;69710;64.656;21.218;2023-07-31T00:00:24;100456.65;;;14.37;100.00
49455;BME280;69710;64.656;21.218;2023-07-31T00:02:52;100458.65;;;14.35;100.00
49455;BME280;69710;64.656;21.218;2023-07-31T00:05:20;100462.13;;;14.34;100.00
49455;BME280;69710;64.656;21.218;2023-07-31T00:07:48;100465.28;;;14.18;100.00
49455;BME280;69710;64.656;21.218;2023-07-31T00:10:16;100466.41;;;14.20;100.00
49455;BME280;69710;64.656;21.218;2023-07-31T00:12:45;100468.65;;;14.06;100.00
49455;BME280;69710;64.656;21.218;2023-07-31T00:15:13;100471.61;;;13.99;100.00
49455;BME280;69710;64.656;21.218;2023-07-31T00:17:41;100473.74;;;14.16;100.00
49455;BME280;69710;64.656;21.218;2023-07-31T00:20:10;100475.34;;;14.26;100.00
49455;BME280;69710;64.656;21.218;2023-07-31T00:22:38;100476.89;;;13.70;100.00
49455;BME280;69710;64.656;21.218;2023-07-31T00:25:06;100473.84;;;13.92;100.00
49455;BME280;69710;64.656;21.218;2023-07-31T00:27:34;100479.12;;;13.65;100.00
49455;BME280;69710;64.656;21.218;2023-07-31T00:30:01;100478.49;;;13.88;100.00
49455;BME280;69710;64.656;21.218;2023-07-31T00:32:29;100480.57;;;13.57;100.00
49455;BME280;69710;64.656;21.218;2023-07-31T00:34:57;100479.35;;;13.52;100.00
49455;BME280;69710;64.656;21.218;2023-07-31T00:37:24;100478.14;;;13.52;100.00
49455;BME280;69710;64.656;21.218;2023-07-31T00:39:51;100481.60;;;13.57;100.00
49455;BME280;69710;64.656;21.218;2023-07-31T00:42:20;100480.58;;;13.98;100.00
49455;BME280;69710;64.656;21.218;2023-07-31T00:44:47;100481.94;;;13.75;100.00
49455;BME280;69710;64.656;21.218;2023-07-31T00:47:14;100482.62;;;13.68;100.00
49455;BME280;69710;64.656;21.218;2023-07-31T00:49:42;100481.80;;;13.62;100.00
49455;BME280;69710;64.656;21.218;2023-07-31T00:52:10;100482.02;;;13.84;100.00
49455;BME280;69710;64.656;21.218;2023-07-31T00:54:39;100480.18;;;14.01;100.00
49455;BME280;69710;64.656;21.218;2023-07-31T00:57:07;100480.45;;;13.81;100.00
49455;BME280;69710;64.656;21.218;2023-07-31T00:59:35;100476.71;;;13.51;100.00
49455;BME280;69710;64.656;21.218;2023-07-31T01:02:03;100478.83;;;13.53;100.00
49455;BME280;69710;64.656;21.218;2023-07-31T01:04:31;100478.48;;;13.74;100.00
49455;BME280;69710;64.656;21.218;2023-07-31T01:07:03;100479.12;;;14.01;100.00
49455;BME280;69710;64.656;21.218;2023-07-31T01:09:40;100479.99;;;13.43;100.00
49455;BME280;69710;64.656;21.218;2023-07-31T01:12:15;100487.49;;;13.58;100.00
49455;BME280;69710;64.656;21.218;2023-07-31T01:14:51;100489.92;;;13.90;100.00
49455;BME280;69710;64.656;21.218;2023-07-31T01:17:19;100490.97;;;13.68;100.00
49455;BME280;69710;64.656;21.218;2023-07-31T01:19:47;100491.67;;;13.61;100.00
49455;BME280;69710;64.656;21.218;2023-07-31T01:22:30;100494.11;;;13.59;100.00
49455;BME280;69710;64.656;21.218;2023-07-31T01:25:12;100495.52;;;13.62;100.00
49455;BME280;69710;64.656;21.218;2023-07-31T01:27:48;100494.43;;;13.40;100.00
49455;BME280;69710;64.656;21.218;2023-07-31T01:30:23;100492.86;;;13.57;100.00
49455;BME280;69710;64.656;21.218;2023-07-31T01:32:53;100495.59;;;13.42;100.00
49455;BME280;69710;64.656;21.218;2023-07-31T01:35:22;100501.36;;;13.73;100.00
49455;BME280;69710;64.656;21.218;2023-07-31T01:37:52;100497.39;;;13.56;100.00
49455;BME280;69710;64.656;21.218;2023-07-31T01:40:20;100497.51;;;12.99;100.00
49455;BME280;69710;64.656;21.218;2023-07-31T01:42:47;100496.73;;;13.67;100.00
49455;BME280;69710;64.656;21.218;2023-07-31T01:45:14;100498.47;;;13.35;100.00
49455;BME280;69710;64.656;21.218;2023-07-31T01:47:42;100503.23;;;13.28;100.00
49455;BME280;69710;64.656;21.218;2023-07-31T01:50:10;100507.47;;;13.76;100.00
49455;BME280;69710;64.656;21.218;2023-07-31T01:52:37;100514.88;;;13.81;100.00
49455;BME280;69710;64.656;21.218;2023-07-31T01:55:06;100515.26;;;13.55;100.00
49455;BME280;69710;64.656;21.218;2023-07-31T01:57:33;100514.90;;;14.45;100.00
49455;BME280;69710;64.656;21.218;2023-07-31T02:00:01;100518.40;;;13.85;100.00
49455;BME280;69710;64.656;21.218;2023-07-31T02:02:29;100520.71;;;13.86;100.00
49455;BME280;69710;64.656;21.218;2023-07-31T02:04:57;100524.85;;;14.05;100.00
49455;BME280;69710;64.656;21.218;2023-07-31T02:07:24;100529.46;;;13.51;100.00
49455;BME280;69710;64.656;21.218;2023-07-31T02:09:52;100531.98;;;12.33;100.00
49455;BME280;69710;64.656;21.218;2023-07-31T02:12:19;100528.24;;;11.57;100.00
49455;BME280;69710;64.656;21.218;2023-07-31T02:14:48;100529.54;;;12.43;100.00
49455;BME280;69710;64.656;21.218;2023-07-31T02:17:16;100529.16;;;12.88;100.00
49455;BME280;69710;64.656;21.218;2023-07-31T02:19:43;100534.83;;;13.35;100.00
49455;BME280;69710;64.656;21.218;2023-07-31T02:22:11;100537.95;;;13.55;100.00
49455;BME280;69710;64.656;21.218;2023-07-31T02:24:39;100532.90;;;13.69;100.00
49455;BME280;69710;64.656;21.218;2023-07-31T02:27:07;100537.29;;;13.19;100.00
49455;BME280;69710;64.656;21.218;2023-07-31T02:29:35;100540.46;;;13.44;100.00
49455;BME280;69710;64.656;21.218;2023-07-31T02:32:03;100536.08;;;13.36;100.00
49455;BME280;69710;64.656;21.218;2023-07-31T02:34:31;100539.12;;;13.40;100.00
49455;BME280;69710;64.656;21.218;2023-07-31T02:36:59;100535.74;;;13.67;100.00
49455;BME280;69710;64.656;21.218;2023-07-31T02:39:26;100536.43;;;13.74;100.00
49455;BME280;69710;64.656;21.218;2023-07-31T02:41:54;100538.19;;;13.86;100.00
49455;BME280;69710;64.656;21.218;2023-07-31T02:44:21;100543.54;;;13.83;100.00
49455;BME280;69710;64.656;21.218;2023-07-31T02:46:49;100547.99;;;13.13;100.00
49455;BME280;69710;64.656;21.218;2023-07-31T02:49:16;100547.38;;;12.07;100.00
49455;BME280;69710;64.656;21.218;2023-07-31T02:51:43;100547.58;;;11.82;100.00
49455;BME280;69710;64.656;21.218;2023-07-31T02:54:11;100550.27;;;11.27;100.00
49455;BME280;69710;64.656;21.218;2023-07-31T02:56:39;100548.58;;;10.81;100.00
49455;BME280;69710;64.656;21.218;2023-07-31T02:59:07;100552.20;;;10.34;100.00
49455;BME280;69710;64.656;21.218;2023-07-31T03:01:35;100548.84;;;10.65;100.00
49455;BME280;69710;64.656;21.218;2023-07-31T03:04:03;100542.51;;;12.06;100.00
49455;BME280;69710;64.656;21.218;2023-07-31T03:06:31;100540.02;;;12.23;100.00
49455;BME280;69710;64.656;21.218;2023-07-31T03:08:59;100543.81;;;12.28;100.00
49455;BME280;69710;64.656;21.218;2023-07-31T03:11:27;100548.09;;;12.26;100.00
49455;BME280;69710;64.656;21.218;2023-07-31T03:13:55;100556.09;;;11.43;100.00
49455;BME280;69710;64.656;21.218;2023-07-31T03:16:23;100556.67;;;11.25;100.00
49455;BME280;69710;64.656;21.218;2023-07-31T03:18:51;100562.69;;;11.28;100.00
49455;BME280;69710;64.656;21.218;2023-07-31T03:21:18;100561.67;;;11.70;100.00
49455;BME280;69710;64.656;21.218;2023-07-31T03:23:46;100560.91;;;12.85;100.00
49455;BME280;69710;64.656;21.218;2023-07-31T03:26:13;100564.47;;;13.13;100.00
49455;BME280;69710;64.656;21.218;2023-07-31T03:28:41;100572.11;;;13.41;100.00
49455;BME280;69710;64.656;21.218;2023-07-31T03:31:09;100572.53;;;13.58;100.00
49455;BME280;69710;64.656;21.218;2023-07-31T03:33:38;100569.81;;;14.03;100.00
49455;BME280;69710;64.656;21.218;2023-07-31T03:36:06;100568.97;;;13.90;100.00
49455;BME280;69710;64.656;21.218;2023-07-31T03:38:34;100571.65;;;13.98;100.00
49455;BME280;69710;64.656;21.218;2023-07-31T03:41:02;100574.39;;;13.62;100.00
49455;BME280;69710;64.656;21.218;2023-07-31T03:43:29;100574.90;;;13.83;100.00
49455;BME280;69710;64.656;21.218;2023-07-31T03:45:57;100578.60;;;14.32;100.00
49455;BME280;69710;64.656;21.218;2023-07-31T03:48:25;100577.13;;;14.39;100.00
49455;BME280;69710;64.656;21.218;2023-07-31T03:50:53;100576.09;;;14.53;100.00
49455;BME280;69710;64.656;21.218;2023-07-31T03:53:21;100579.23;;;14.09;100.00
49455;BME280;69710;64.656;21.218;2023-07-31T03:55:49;100581.90;;;14.32;100.00
49455;BME280;69710;64.656;21.218;2023-07-31T03:58:17;100585.87;;;14.30;100.00
49455;BME280;69710;64.656;21.218;2023-07-31T04:00:46;100583.26;;;14.42;100.00
49455;BME280;69710;64.656;21.218;2023-07-31T04:03:14;100584.17;;;14.38;100.00
49455;BME280;69710;64.656;21.218;2023-07-31T04:05:42;100585.77;;;14.55;100.00
49455;BME280;69710;64.656;21.218;2023-07-31T04:08:10;100587.73;;;14.88;100.00
49455;BME280;69710;64.656;21.218;2023-07-31T04:10:38;100591.00;;;14.83;100.00
49455;BME280;69710;64.656;21.218;2023-07-31T04:13:06;100592.65;;;15.28;100.00
49455;BME280;69710;64.656;21.218;2023-07-31T04:15:34;100595.58;;;15.00;100.00
49455;BME280;69710;64.656;21.218;2023-07-31T04:18:02;100594.67;;;15.43;100.00
49455;BME280;69710;64.656;21.218;2023-07-31T04:20:30;100596.15;;;14.81;100.00
49455;BME280;69710;64.656;21.218;2023-07-31T04:22:59;100593.85;;;15.19;100.00
49455;BME280;69710;64.656;21.218;2023-07-31T04:25:26;100597.47;;;14.76;100.00
49455;BME280;69710;64.656;21.218;2023-07-31T04:27:54;100597.68;;;13.94;100.00
49455;BME280;69710;64.656;21.218;2023-07-31T04:30:21;100591.95;;;14.51;100.00
49455;BME280;69710;64.656;21.218;2023-07-31T04:32:49;100595.51;;;15.12;100.00
49455;BME280;69710;64.656;21.218;2023-07-31T04:35:16;100591.64;;;14.57;100.00
49455;BME280;69710;64.656;21.218;2023-07-31T04:37:44;100595.24;;;15.12;100.00
49455;BME280;69710;64.656;21.218;2023-07-31T04:40:12;100596.63;;;15.28;100.00
49455;BME280;69710;64.656;21.218;2023-07-31T04:42:40;100600.43;;;15.67;100.00
49455;BME280;69710;64.656;21.218;2023-07-31T04:45:09;100601.05;;;15.37;100.00
49455;BME280;69710;64.656;21.218;2023-07-31T04:47:36;100601.80;;;15.42;100.00
49455;BME280;69710;64.656;21.218;2023-07-31T04:50:05;100606.21;;;14.96;100.00
49455;BME280;69710;64.656;21.218;2023-07-31T04:52:33;100609.58;;;13.99;100.00
49455;BME280;69710;64.656;21.218;2023-07-31T04:55:01;100612.90;;;13.28;100.00
49455;BME280;69710;64.656;21.218;2023-07-31T04:57:29;100613.62;;;13.78;100.00
49455;BME280;69710;64.656;21.218;2023-07-31T04:59:57;100609.96;;;14.09;100.00
49455;BME280;69710;64.656;21.218;2023-07-31T05:02:25;100609.43;;;14.48;100.00
49455;BME280;69710;64.656;21.218;2023-07-31T05:04:52;100611.96;;;14.86;100.00
49455;BME280;69710;64.656;21.218;2023-07-31T05:07:20;100615.13;;;14.16;100.00
49455;BME280;69710;64.656;21.218;2023-07-31T05:09:48;100622.94;;;13.33;100.00
49455;BME280;69710;64.656;21.218;2023-07-31T05:12:16;100623.01;;;13.86;100.00
49455;BME280;69710;64.656;21.218;2023-07-31T05:14:44;100616.64;;;14.23;100.00
49455;BME280;69710;64.656;21.218;2023-07-31T05:17:12;100617.37;;;13.88;100.00
49455;BME280;69710;64.656;21.218;2023-07-31T05:19:40;100615.55;;;14.94;100.00
49455;BME280;69710;64.656;21.218;2023-07-31T05:22:08;100612.85;;;14.34;100.00
49455;BME280;69710;64.656;21.218;2023-07-31T05:24:36;100607.04;;;14.52;100.00
49455;BME280;69710;64.656;21.218;2023-07-31T05:27:04;100611.56;;;14.15;100.00
49455;BME280;69710;64.656;21.218;2023-07-31T05:29:31;100614.03;;;12.61;100.00
49455;BME280;69710;64.656;21.218;2023-07-31T05:31:59;100615.45;;;11.81;100.00
49455;BME280;69710;64.656;21.218;2023-07-31T05:34:26;100616.18;;;12.80;100.00
49455;BME280;69710;64.656;21.218;2023-07-31T05:36:55;100615.74;;;12.26;100.00
49455;BME280;69710;64.656;21.218;2023-07-31T05:39:22;100618.76;;;11.84;100.00
49455;BME280;69710;64.656;21.218;2023-07-31T05:41:50;100622.03;;;12.29;100.00
49455;BME280;69710;64.656;21.218;2023-07-31T05:44:18;100629.40;;;12.56;100.00
49455;BME280;69710;64.656;21.218;2023-07-31T05:46:45;100631.87;;;13.46;100.00
49455;BME280;69710;64.656;21.218;2023-07-31T05:49:13;100631.01;;;14.44;100.00
49455;BME280;69710;64.656;21.218;2023-07-31T05:51:41;100627.24;;;13.03;100.00
49455;BME280;69710;64.656;21.218;2023-07-31T05:54:09;100628.86;;;14.74;100.00
49455;BME280;69710;64.656;21.218;2023-07-31T05:56:37;100631.29;;;14.22;100.00
49455;BME280;69710;64.656;21.218;2023-07-31T05:59:05;100632.52;;;14.20;100.00
49455;BME280;69710;64.656;21.218;2023-07-31T06:01:32;100634.93;;;14.22;100.00
49455;BME280;69710;64.656;21.218;2023-07-31T06:04:00;100631.18;;;14.61;100.00
49455;BME280;69710;64.656;21.218;2023-07-31T06:06:28;100633.12;;;14.17;100.00
49455;BME280;69710;64.656;21.218;2023-07-31T06:08:56;100634.85;;;14.40;100.00
49455;BME280;69710;64.656;21.218;2023-07-31T06:11:23;100633.74;;;15.51;100.00
49455;BME280;69710;64.656;21.218;2023-07-31T06:13:51;100629.55;;;14.45;100.00
49455;BME280;69710;64.656;21.218;2023-07-31T06:16:19;100636.12;;;12.50;100.00
49455;BME280;69710;64.656;21.218;2023-07-31T06:18:47;100639.24;;;12.20;100.00
49455;BME280;69710;64.656;21.218;2023-07-31T06:21:15;100640.50;;;13.76;100.00
49455;BME280;69710;64.656;21.218;2023-07-31T06:23:43;100640.02;;;14.54;100.00
49455;BME280;69710;64.656;21.218;2023-07-31T06:26:11;100639.34;;;14.73;100.00
49455;BME280;69710;64.656;21.218;2023-07-31T06:28:38;100642.89;;;14.01;100.00
49455;BME280;69710;64.656;21.218;2023-07-31T06:31:06;100642.98;;;13.79;100.00
49455;BME280;69710;64.656;21.218;2023-07-31T06:33:35;100639.92;;;14.33;100.00
49455;BME280;69710;64.656;21.218;2023-07-31T06:36:02;100639.97;;;14.62;100.00
49455;BME280;69710;64.656;21.218;2023-07-31T06:38:30;100644.50;;;13.37;100.00
49455;BME280;69710;64.656;21.218;2023-07-31T06:40:57;100644.82;;;14.63;100.00
49455;BME280;69710;64.656;21.218;2023-07-31T06:43:26;100652.43;;;14.39;100.00
49455;BME280;69710;64.656;21.218;2023-07-31T06:45:53;100651.41;;;15.15;100.00
49455;BME280;69710;64.656;21.218;2023-07-31T06:48:21;100651.15;;;15.27;100.00
49455;BME280;69710;64.656;21.218;2023-07-31T06:50:48;100654.17;;;14.69;100.00
49455;BME280;69710;64.656;21.218;2023-07-31T06:53:17;100654.17;;;15.42;100.00
49455;BME280;69710;64.656;21.218;2023-07-31T06:55:44;100655.32;;;14.92;100.00
49455;BME280;69710;64.656;21.218;2023-07-31T06:58:12;100657.25;;;15.44;100.00
49455;BME280;69710;64.656;21.218;2023-07-31T07:00:40;100662.77;;;15.12;100.00
49455;BME280;69710;64.656;21.218;2023-07-31T07:03:07;100668.35;;;15.00;100.00
49455;BME280;69710;64.656;21.218;2023-07-31T07:05:35;100675.10;;;13.72;100.00
49455;BME280;69710;64.656;21.218;2023-07-31T07:08:08;100673.45;;;14.78;100.00
49455;BME280;69710;64.656;21.218;2023-07-31T07:10:37;100676.75;;;14.20;100.00
49455;BME280;69710;64.656;21.218;2023-07-31T07:13:04;100679.41;;;14.69;100.00
49455;BME280;69710;64.656;21.218;2023-07-31T07:15:32;100679.66;;;15.23;100.00
49455;BME280;69710;64.656;21.218;2023-07-31T07:18:00;100686.18;;;15.30;100.00
49455;BME280;69710;64.656;21.218;2023-07-31T07:20:28;100686.22;;;15.13;100.00
49455;BME280;69710;64.656;21.218;2023-07-31T07:22:56;100694.08;;;14.67;100.00
49455;BME280;69710;64.656;21.218;2023-07-31T07:25:24;100694.47;;;14.40;100.00
49455;BME280;69710;64.656;21.218;2023-07-31T07:27:52;100694.74;;;13.90;100.00
49455;BME280;69710;64.656;21.218;2023-07-31T07:30:19;100690.30;;;15.47;100.00
49455;BME280;69710;64.656;21.218;2023-07-31T07:32:47;100692.36;;;15.98;100.00
49455;BME280;69710;64.656;21.218;2023-07-31T07:35:15;100696.99;;;15.69;100.00
49455;BME280;69710;64.656;21.218;2023-07-31T07:37:42;100704.22;;;15.72;100.00
49455;BME280;69710;64.656;21.218;2023-07-31T07:40:10;100709.61;;;14.01;100.00
49455;BME280;69710;64.656;21.218;2023-07-31T07:42:38;100705.69;;;13.90;100.00
49455;BME280;69710;64.656;21.218;2023-07-31T07:45:07;100709.08;;;14.07;100.00
49455;BME280;69710;64.656;21.218;2023-07-31T07:47:36;100706.27;;;14.59;100.00
49455;BME280;69710;64.656;21.218;2023-07-31T07:50:04;100705.14;;;13.87;100.00
49455;BME280;69710;64.656;21.218;2023-07-31T07:52:32;100706.90;;;14.22;100.00
49455;BME280;69710;64.656;21.218;2023-07-31T07:54:59;100706.87;;;13.67;100.00
49455;BME280;69710;64.656;21.218;2023-07-31T07:57:27;100707.06;;;15.19;100.00
49455;BME280;69710;64.656;21.218;2023-07-31T07:59:55;100702.62;;;14.75;100.00
49455;BME280;69710;64.656;21.218;2023-07-31T08:02:23;100698.63;;;15.67;100.00
49455;BME280;69710;64.656;21.218;2023-07-31T08:04:51;100698.15;;;14.94;100.00
49455;BME280;69710;64.656;21.218;2023-07-31T08:07:18;100693.83;;;15.39;100.00
49455;BME280;69710;64.656;21.218;2023-07-31T08:09:47;100693.34;;;15.10;100.00
49455;BME280;69710;64.656;21.218;2023-07-31T08:12:15;100693.92;;;13.55;100.00
49455;BME280;69710;64.656;21.218;2023-07-31T08:14:42;100698.85;;;13.36;100.00
49455;BME280;69710;64.656;21.218;2023-07-31T08:17:10;100696.79;;;14.69;100.00
49455;BME280;69710;64.656;21.218;2023-07-31T08:19:37;100691.26;;;15.07;100.00
49455;BME280;69710;64.656;21.218;2023-07-31T08:22:05;100692.89;;;14.19;100.00
49455;BME280;69710;64.656;21.218;2023-07-31T08:24:33;100693.29;;;14.71;100.00
49455;BME280;69710;64.656;21.218;2023-07-31T08:27:01;100683.76;;;15.87;100.00
49455;BME280;69710;64.656;21.218;2023-07-31T08:29:29;100685.67;;;14.63;100.00
49455;BME280;69710;64.656;21.218;2023-07-31T08:31:56;100684.50;;;14.79;100.00
49455;BME280;69710;64.656;21.218;2023-07-31T08:34:24;100686.83;;;15.32;100.00
49455;BME280;69710;64.656;21.218;2023-07-31T08:36:52;100684.01;;;14.77;100.00
49455;BME280;69710;64.656;21.218;2023-07-31T08:39:20;100683.01;;;16.32;100.00
49455;BME280;69710;64.656;21.218;2023-07-31T08:41:48;100682.61;;;16.65;100.00
49455;BME280;69710;64.656;21.218;2023-07-31T08:44:15;100682.95;;;16.53;100.00
49455;BME280;69710;64.656;21.218;2023-07-31T08:46:46;100680.64;;;16.01;100.00
49455;BME280;69710;64.656;21.218;2023-07-31T08:49:15;100685.47;;;15.71;100.00
49455;BME280;69710;64.656;21.218;2023-07-31T08:51:46;100689.72;;;15.54;100.00
49455;BME280;69710;64.656;21.218;2023-07-31T08:54:16;100686.45;;;15.71;100.00
49455;BME280;69710;64.656;21.218;2023-07-31T08:56:45;100690.66;;;15.50;100.00
49455;BME280;69710;64.656;21.218;2023-07-31T08:59:13;100697.08;;;14.35;100.00
49455;BME280;69710;64.656;21.218;2023-07-31T09:01:44;100691.06;;;15.11;100.00
49455;BME280;69710;64.656;21.218;2023-07-31T09:04:13;100691.45;;;15.67;100.00
49455;BME280;69710;64.656;21.218;2023-07-31T09:06:42;100694.05;;;15.67;100.00
49455;BME280;69710;64.656;21.218;2023-07-31T09:09:12;100691.34;;;15.69;100.00
49455;BME280;69710;64.656;21.218;2023-07-31T09:11:40;100695.97;;;15.99;100.00
49455;BME280;69710;64.656;21.218;2023-07-31T09:14:08;100695.21;;;15.93;100.00
49455;BME280;69710;64.656;21.218;2023-07-31T09:16:36;100699.07;;;14.92;100.00
49455;BME280;69710;64.656;21.218;2023-07-31T09:19:04;100693.80;;;14.77;100.00
49455;BME280;69710;64.656;21.218;2023-07-31T09:21:31;100689.67;;;15.80;100.00
49455;BME280;69710;64.656;21.218;2023-07-31T09:23:59;100692.83;;;15.03;100.00
49455;BME280;69710;64.656;21.218;2023-07-31T09:26:31;100697.02;;;15.18;100.00
49455;BME280;69710;64.656;21.218;2023-07-31T09:29:00;100701.23;;;15.12;100.00
49455;BME280;69710;64.656;21.218;2023-07-31T09:31:43;100702.05;;;14.98;100.00
49455;BME280;69710;64.656;21.218;2023-07-31T09:34:11;100693.26;;;15.25;100.00
49455;BME280;69710;64.656;21.218;2023-07-31T09:36:41;100695.34;;;15.04;100.00
49455;BME280;69710;64.656;21.218;2023-07-31T09:39:10;100696.16;;;14.56;100.00
49455;BME280;69710;64.656;21.218;2023-07-31T09:41:38;100698.18;;;14.82;100.00
49455;BME280;69710;64.656;21.218;2023-07-31T09:44:06;100697.76;;;15.27;100.00
49455;BME280;69710;64.656;21.218;2023-07-31T09:46:36;100704.06;;;15.16;100.00
49455;BME280;69710;64.656;21.218;2023-07-31T09:49:08;100703.04;;;14.95;100.00
49455;BME280;69710;64.656;21.218;2023-07-31T09:51:36;100699.15;;;14.80;100.00
49455;BME280;69710;64.656;21.218;2023-07-31T09:54:11;100697.01;;;15.15;100.00
49455;BME280;69710;64.656;21.218;2023-07-31T09:56:43;100690.58;;;15.56;100.00
49455;BME280;69710;64.656;21.218;2023-07-31T09:59:13;100687.71;;;14.98;100.00
49455;BME280;69710;64.656;21.218;2023-07-31T10:01:41;100693.21;;;15.34;100.00
49455;BME280;69710;64.656;21.218;2023-07-31T10:04:12;100705.23;;;15.29;100.00
49455;BME280;69710;64.656;21.218;2023-07-31T10:06:42;100713.78;;;15.00;100.00
49455;BME280;69710;64.656;21.218;2023-07-31T10:09:13;100710.37;;;14.87;100.00
49455;BME280;69710;64.656;21.218;2023-07-31T10:11:55;100708.28;;;15.43;100.00
49455;BME280;69710;64.656;21.218;2023-07-31T10:14:27;100707.81;;;15.46;100.00
49455;BME280;69710;64.656;21.218;2023-07-31T10:16:56;100701.17;;;15.39;100.00
49455;BME280;69710;64.656;21.218;2023-07-31T10:19:24;100697.93;;;15.60;100.00
49455;BME280;69710;64.656;21.218;2023-07-31T10:21:54;100690.98;;;15.98;100.00
49455;BME280;69710;64.656;21.218;2023-07-31T10:24:22;100686.96;;;16.01;100.00
49455;BME280;69710;64.656;21.218;2023-07-31T10:26:52;100689.19;;;16.25;100.00
49455;BME280;69710;64.656;21.218;2023-07-31T10:29:22;100688.50;;;16.14;100.00
49455;BME280;69710;64.656;21.218;2023-07-31T10:31:51;100678.67;;;15.95;100.00
49455;BME280;69710;64.656;21.218;2023-07-31T10:34:19;100675.73;;;16.59;100.00
49455;BME280;69710;64.656;21.218;2023-07-31T10:36:47;100676.68;;;16.61;100.00
49455;BME280;69710;64.656;21.218;2023-07-31T10:39:58;100679.22;;;16.94;100.00
49455;BME280;69710;64.656;21.218;2023-07-31T10:42:32;100679.33;;;16.83;100.00
49455;BME280;69710;64.656;21.218;2023-07-31T10:45:02;100679.38;;;16.81;100.00
49455;BME280;69710;64.656;21.218;2023-07-31T10:47:30;100678.40;;;16.69;100.00
49455;BME280;69710;64.656;21.218;2023-07-31T10:50:17;100680.59;;;16.83;100.00
49455;BME280;69710;64.656;21.218;2023-07-31T10:52:47;100682.98;;;17.27;100.00
49455;BME280;69710;64.656;21.218;2023-07-31T10:55:27;100680.10;;;16.97;100.00
49455;BME280;69710;64.656;21.218;2023-07-31T10:57:55;100683.13;;;16.88;100.00
49455;BME280;69710;64.656;21.218;2023-07-31T11:00:26;100687.20;;;16.56;100.00
49455;BME280;69710;64.656;21.218;2023-07-31T11:03:03;100689.16;;;16.90;100.00
49455;BME280;69710;64.656;21.218;2023-07-31T11:05:52;100688.93;;;16.73;100.00
49455;BME280;69710;64.656;21.218;2023-07-31T11:08:22;100689.74;;;16.91;100.00
49455;BME280;69710;64.656;21.218;2023-07-31T11:10:51;100690.07;;;16.84;100.00
49455;BME280;69710;64.656;21.218;2023-07-31T11:13:33;100690.97;;;16.54;100.00
49455;BME280;69710;64.656;21.218;2023-07-31T11:16:02;100689.32;;;16.42;100.00
49455;BME280;69710;64.656;21.218;2023-07-31T11:18:30;100693.37;;;16.28;100.00
49455;BME280;69710;64.656;21.218;2023-07-31T11:20:58;100695.55;;;16.13;100.00
49455;BME280;69710;64.656;21.218;2023-07-31T11:23:26;100690.67;;;16.06;100.00
49455;BME280;69710;64.656;21.218;2023-07-31T11:25:59;100688.52;;;16.44;100.00
49455;BME280;69710;64.656;21.218;2023-07-31T11:28:31;100687.88;;;16.55;100.00
49455;BME280;69710;64.656;21.218;2023-07-31T11:31:00;100689.81;;;16.20;100.00
49455;BME280;69710;64.656;21.218;2023-07-31T11:33:29;100695.49;;;16.22;100.00
49455;BME280;69710;64.656;21.218;2023-07-31T11:35:56;100703.10;;;16.12;100.00
49455;BME280;69710;64.656;21.218;2023-07-31T11:38:25;100702.08;;;16.50;100.00
49455;BME280;69710;64.656;21.218;2023-07-31T11:40:54;100699.15;;;16.31;100.00
49455;BME280;69710;64.656;21.218;2023-07-31T11:43:22;100704.71;;;16.46;100.00
49455;BME280;69710;64.656;21.218;2023-07-31T11:45:51;100704.61;;;16.02;100.00
49455;BME280;69710;64.656;21.218;2023-07-31T11:48:21;100708.77;;;15.47;100.00
49455;BME280;69710;64.656;21.218;2023-07-31T11:50:50;100706.85;;;15.69;100.00
49455;BME280;69710;64.656;21.218;2023-07-31T11:53:21;100708.91;;;15.13;100.00
49455;BME280;69710;64.656;21.218;2023-07-31T11:55:53;100704.91;;;15.10;100.00
49455;BME280;69710;64.656;21.218;2023-07-31T11:58:21;100706.18;;;15.39;100.00
49455;BME280;69710;64.656;21.218;2023-07-31T12:00:50;100710.14;;;15.23;100.00
49455;BME280;69710;64.656;21.218;2023-07-31T12:03:18;100708.26;;;15.27;100.00
49455;BME280;69710;64.656;21.218;2023-07-31T12:05:48;100706.98;;;14.73;100.00
49455;BME280;69710;64.656;21.218;2023-07-31T12:08:16;100699.85;;;14.44;100.00
49455;BME280;69710;64.656;21.218;2023-07-31T12:10:43;100699.34;;;14.56;100.00
49455;BME280;69710;64.656;21.218;2023-07-31T12:13:20;100700.22;;;15.07;100.00
49455;BME280;69710;64.656;21.218;2023-07-31T12:15:48;100708.86;;;13.93;100.00
49455;BME280;69710;64.656;21.218;2023-07-31T12:18:21;100700.25;;;15.01;100.00
49455;BME280;69710;64.656;21.218;2023-07-31T12:20:53;100691.00;;;15.19;100.00
49455;BME280;69710;64.656;21.218;2023-07-31T12:23:23;100690.00;;;14.71;100.00
49455;BME280;69710;64.656;21.218;2023-07-31T12:26:00;100695.29;;;15.01;100.00
49455;BME280;69710;64.656;21.218;2023-07-31T12:28:28;100703.92;;;14.94;100.00
49455;BME280;69710;64.656;21.218;2023-07-31T12:30:57;100695.82;;;14.65;100.00
49455;BME280;69710;64.656;21.218;2023-07-31T12:33:31;100687.18;;;14.73;100.00
49455;BME280;69710;64.656;21.218;2023-07-31T12:36:02;100671.28;;;13.65;100.00
49455;BME280;69710;64.656;21.218;2023-07-31T12:38:30;100673.85;;;13.39;100.00